Time;durP1;ratioP1;P1;durP2;ratioP2;P2;SDS_P1;SDS_P2;PMS_P1;PMS_P2;Temp;Humidity;BMP_temperature;BMP_pressure;BME280_temperature;BME280_humidity;BME280_pressure;Samples;Min_cycle;Max_cycle;Signal;HPM_P1;HPM_P2
2024/01/22 00:00:16;;;;;;;8.77;2.67;;;6.50;99.90;;;;;;4992049;28;20034;-63
2024/01/22 00:02:41;;;;;;;12.00;3.03;;;6.60;99.90;;;;;;4986307;28;20069;-63
2024/01/22 00:05:10;;;;;;;5.85;2.25;;;6.60;99.90;;;;;;4984217;28;20438;-63
2024/01/22 00:07:36;;;;;;;7.97;2.90;;;6.60;99.90;;;;;;4988148;28;20014;-63
2024/01/22 00:10:03;;;;;;;10.05;2.70;;;6.60;99.90;;;;;;4985111;28;20026;-63
2024/01/22 00:12:30;;;;;;;5.95;2.13;;;6.60;99.90;;;;;;4990685;28;20034;-63
2024/01/22 00:14:56;;;;;;;7.00;2.33;;;6.60;99.90;;;;;;4983771;28;20015;-63
2024/01/22 00:17:22;;;;;;;10.52;2.30;;;6.70;99.90;;;;;;4986732;28;20044;-61
2024/01/22 00:19:48;;;;;;;10.80;2.92;;;6.70;99.90;;;;;;4988963;28;20022;-63
2024/01/22 00:22:13;;;;;;;9.05;2.75;;;6.70;99.90;;;;;;4986745;28;20045;-63
2024/01/22 00:24:40;;;;;;;9.00;2.55;;;6.70;99.90;;;;;;4991578;28;20038;-63
2024/01/22 00:27:06;;;;;;;8.23;2.78;;;6.70;99.90;;;;;;4985920;28;20026;-63
2024/01/22 00:29:31;;;;;;;8.25;2.80;;;6.70;99.90;;;;;;4981567;28;20030;-63
2024/01/22 00:31:57;;;;;;;6.20;2.10;;;6.80;99.90;;;;;;4987535;28;20065;-62
2024/01/22 00:34:22;;;;;;;6.65;2.38;;;6.80;99.90;;;;;;4986694;28;20108;-63
2024/01/22 00:36:48;;;;;;;7.82;2.67;;;6.90;99.90;;;;;;4986539;28;20030;-63
2024/01/22 00:39:13;;;;;;;6.85;2.80;;;6.80;99.90;;;;;;4982944;28;20030;-63
2024/01/22 00:41:39;;;;;;;7.20;2.53;;;6.80;99.90;;;;;;4988417;28;20401;-63
2024/01/22 00:44:05;;;;;;;8.32;2.67;;;6.80;99.90;;;;;;4985196;28;20475;-63
2024/01/22 00:46:31;;;;;;;6.38;2.38;;;6.80;99.90;;;;;;4985425;28;20124;-63
2024/01/22 00:48:56;;;;;;;8.55;2.78;;;6.90;99.90;;;;;;4983895;28;20065;-63
2024/01/22 00:51:22;;;;;;;6.75;2.25;;;6.80;99.90;;;;;;4986781;28;20038;-63
2024/01/22 00:53:47;;;;;;;11.18;2.72;;;6.90;99.90;;;;;;4987011;28;20022;-63
2024/01/22 00:56:13;;;;;;;7.55;2.33;;;6.90;99.90;;;;;;4986104;28;20030;-64
2024/01/22 00:58:39;;;;;;;5.55;2.13;;;6.90;99.90;;;;;;4984107;28;20403;-63
2024/01/22 01:01:05;;;;;;;6.60;2.00;;;6.90;99.90;;;;;;4982087;28;20033;-62
2024/01/22 01:03:31;;;;;;;9.15;2.60;;;6.90;99.90;;;;;;4986426;28;20478;-63
2024/01/22 01:05:56;;;;;;;7.20;2.65;;;7.00;99.90;;;;;;4982537;28;20035;-63
2024/01/22 01:08:22;;;;;;;8.43;2.35;;;7.10;99.90;;;;;;4986760;28;20579;-63
2024/01/22 01:10:48;;;;;;;6.28;2.00;;;7.10;99.90;;;;;;4988088;28;20081;-63
2024/01/22 01:13:13;;;;;;;6.68;2.13;;;7.00;99.90;;;;;;4984479;28;20060;-63
2024/01/22 01:15:39;;;;;;;6.95;2.90;;;7.10;99.90;;;;;;4989626;28;20062;-63
2024/01/22 01:18:05;;;;;;;8.95;2.40;;;7.10;99.90;;;;;;4986495;28;20025;-63
2024/01/22 01:20:30;;;;;;;6.57;2.40;;;7.10;99.90;;;;;;4987618;28;20050;-62
2024/01/22 01:22:56;;;;;;;8.27;2.45;;;7.10;99.90;;;;;;4981396;28;20026;-63
2024/01/22 01:25:21;;;;;;;8.10;2.28;;;7.20;99.90;;;;;;4986294;28;20042;-63
2024/01/22 01:27:47;;;;;;;5.68;2.20;;;7.20;99.90;;;;;;4980881;28;20022;-63
2024/01/22 01:30:13;;;;;;;5.55;1.73;;;7.20;99.90;;;;;;4987825;28;20454;-61
2024/01/22 01:32:38;;;;;;;5.93;2.20;;;7.20;99.90;;;;;;4989738;28;20080;-61
2024/01/22 01:35:04;;;;;;;8.32;2.33;;;7.20;99.90;;;;;;4982686;28;20031;-62
2024/01/22 01:37:30;;;;;;;5.90;2.20;;;7.20;99.90;;;;;;4987902;28;20366;-63
2024/01/22 01:39:55;;;;;;;5.97;2.50;;;7.40;99.90;;;;;;4984543;28;20027;-63
2024/01/22 01:42:22;;;;;;;6.25;1.98;;;7.30;99.90;;;;;;4985277;28;20382;-63
2024/01/22 01:44:49;;;;;;;6.35;2.30;;;7.30;99.90;;;;;;4986884;28;20038;-63
2024/01/22 01:47:15;;;;;;;6.50;2.28;;;7.30;99.90;;;;;;4985821;28;20122;-63
2024/01/22 01:49:41;;;;;;;7.78;2.20;;;7.40;99.90;;;;;;4984451;28;20116;-62
2024/01/22 01:52:09;;;;;;;6.15;2.10;;;7.30;99.90;;;;;;4987311;28;20036;-63
2024/01/22 01:54:35;;;;;;;9.00;2.50;;;7.30;99.90;;;;;;4988189;28;20026;-63
2024/01/22 01:57:01;;;;;;;6.68;2.40;;;7.40;99.90;;;;;;4984850;28;20363;-63
2024/01/22 01:59:27;;;;;;;6.10;2.13;;;7.40;99.90;;;;;;4979749;28;20035;-63
2024/01/22 02:01:52;;;;;;;5.93;1.70;;;7.40;99.90;;;;;;4989449;28;20113;-61
2024/01/22 02:04:18;;;;;;;4.70;1.70;;;7.40;99.90;;;;;;4982152;28;20078;-61
2024/01/22 02:06:43;;;;;;;6.13;1.80;;;7.40;99.90;;;;;;4983980;28;20050;-61
2024/01/22 02:09:10;;;;;;;7.32;1.90;;;7.50;99.90;;;;;;4986387;28;20050;-61
2024/01/22 02:11:35;;;;;;;6.43;1.98;;;7.50;99.90;;;;;;4986149;28;20018;-63
2024/01/22 02:14:01;;;;;;;5.38;1.70;;;7.60;99.90;;;;;;4983260;28;21027;-61
2024/01/22 02:16:26;;;;;;;5.28;1.90;;;7.60;99.90;;;;;;4984532;28;20042;-61
2024/01/22 02:18:52;;;;;;;5.95;1.77;;;7.60;99.90;;;;;;4985341;28;20346;-61
2024/01/22 02:21:17;;;;;;;4.93;1.67;;;7.60;99.90;;;;;;4984590;28;20027;-61
2024/01/22 02:23:43;;;;;;;5.82;1.73;;;7.70;99.90;;;;;;4989408;28;20027;-61
2024/01/22 02:26:09;;;;;;;6.20;1.83;;;7.70;99.90;;;;;;4983722;28;20566;-61
2024/01/22 02:28:34;;;;;;;7.15;1.83;;;7.80;99.90;;;;;;4989216;28;20606;-61
2024/01/22 02:31:01;;;;;;;6.72;1.95;;;7.80;99.90;;;;;;4985680;28;20568;-61
2024/01/22 02:33:27;;;;;;;6.15;2.15;;;7.80;99.90;;;;;;4985292;28;20022;-61
2024/01/22 02:35:52;;;;;;;4.70;1.45;;;7.90;99.90;;;;;;4985316;28;20076;-62
2024/01/22 02:38:18;;;;;;;7.82;2.15;;;7.90;99.90;;;;;;4984248;28;20088;-62
2024/01/22 02:40:44;;;;;;;7.20;2.10;;;7.80;99.90;;;;;;4982537;28;20038;-62
2024/01/22 02:43:09;;;;;;;7.20;2.05;;;7.90;99.90;;;;;;4982173;28;20037;-62
2024/01/22 02:45:35;;;;;;;8.48;2.25;;;7.90;99.90;;;;;;4986853;28;20392;-62
2024/01/22 02:48:00;;;;;;;5.03;1.63;;;7.90;99.90;;;;;;4981783;28;20031;-62
2024/01/22 02:50:26;;;;;;;5.97;1.92;;;7.90;99.90;;;;;;4978787;28;20425;-62
2024/01/22 02:52:51;;;;;;;6.53;2.00;;;8.00;99.90;;;;;;4981925;28;20129;-62
2024/01/22 02:55:17;;;;;;;4.55;1.50;;;8.00;99.90;;;;;;4974711;28;20554;-62
2024/01/22 02:57:43;;;;;;;5.95;1.95;;;8.00;99.90;;;;;;4981184;28;20031;-62
2024/01/22 03:00:09;;;;;;;5.20;1.73;;;8.00;99.90;;;;;;4987116;28;20122;-62
2024/01/22 03:02:34;;;;;;;4.82;1.83;;;8.00;99.90;;;;;;4978019;28;20037;-62
2024/01/22 03:05:00;;;;;;;4.45;1.67;;;7.90;99.90;;;;;;4977742;28;20035;-62
2024/01/22 03:07:26;;;;;;;7.63;2.00;;;7.90;99.90;;;;;;4979329;28;20026;-62
2024/01/22 03:09:52;;;;;;;5.15;1.63;;;8.00;99.90;;;;;;4978031;28;20409;-62
2024/01/22 03:12:17;;;;;;;10.32;1.75;;;8.10;99.90;;;;;;4983653;28;20046;-61
2024/01/22 03:14:43;;;;;;;6.22;1.88;;;8.00;99.90;;;;;;4986967;28;20034;-62
2024/01/22 03:17:09;;;;;;;6.10;1.80;;;8.00;99.90;;;;;;4990409;28;20034;-62
2024/01/22 03:19:36;;;;;;;4.13;1.65;;;8.00;99.90;;;;;;4991424;28;20507;-62
2024/01/22 03:22:02;;;;;;;3.75;1.20;;;8.10;99.90;;;;;;4991103;28;20034;-62
2024/01/22 03:24:28;;;;;;;4.57;1.67;;;8.10;99.90;;;;;;4990632;28;20057;-62
2024/01/22 03:26:53;;;;;;;4.32;1.48;;;8.10;99.90;;;;;;4983617;28;20598;-62
2024/01/22 03:29:19;;;;;;;4.03;1.45;;;8.10;99.90;;;;;;4983290;28;20398;-63
2024/01/22 03:31:45;;;;;;;4.07;1.40;;;8.00;99.90;;;;;;4981179;28;20035;-63
2024/01/22 03:34:10;;;;;;;6.03;2.00;;;8.10;99.90;;;;;;4989242;28;20508;-62
2024/01/22 03:36:37;;;;;;;3.78;1.50;;;8.10;99.90;;;;;;4984045;28;20037;-62
2024/01/22 03:39:03;;;;;;;6.20;1.45;;;8.10;99.90;;;;;;4981818;28;20101;-63
2024/01/22 03:41:28;;;;;;;5.78;1.70;;;8.20;99.90;;;;;;4980463;28;20027;-63
2024/01/22 03:43:54;;;;;;;5.80;1.58;;;8.30;99.90;;;;;;4982525;28;20475;-63
2024/01/22 03:46:19;;;;;;;5.32;1.70;;;8.20;99.90;;;;;;4981736;28;20036;-63
2024/01/22 03:48:45;;;;;;;4.97;1.60;;;8.20;99.90;;;;;;4980320;28;20059;-63
2024/01/22 03:51:11;;;;;;;4.32;1.48;;;8.20;99.90;;;;;;4990963;28;20038;-63
2024/01/22 03:53:37;;;;;;;4.90;1.60;;;8.20;99.90;;;;;;4980446;28;20037;-63
2024/01/22 03:56:05;;;;;;;3.88;1.42;;;8.20;99.90;;;;;;4982465;28;20049;-63
2024/01/22 03:58:31;;;;;;;5.40;1.83;;;8.20;99.90;;;;;;4986468;28;20426;-63
2024/01/22 04:00:56;;;;;;;6.90;1.70;;;8.30;99.90;;;;;;4984191;28;20105;-63
2024/01/22 04:03:23;;;;;;;4.25;1.48;;;8.30;99.90;;;;;;4981303;28;20647;-63
2024/01/22 04:05:48;;;;;;;5.97;1.60;;;8.30;99.90;;;;;;4982676;28;20048;-64
2024/01/22 04:08:14;;;;;;;4.40;1.55;;;8.20;99.90;;;;;;4980421;28;20023;-63
2024/01/22 04:10:39;;;;;;;5.30;1.90;;;8.20;99.90;;;;;;4982311;28;20529;-63
2024/01/22 04:13:05;;;;;;;4.65;1.67;;;8.10;99.90;;;;;;4986585;28;20039;-62
2024/01/22 04:15:31;;;;;;;5.15;1.58;;;8.00;99.90;;;;;;4983026;28;20031;-62
2024/01/22 04:17:57;;;;;;;6.47;1.90;;;7.90;99.90;;;;;;4987994;28;20038;-62
2024/01/22 04:20:22;;;;;;;5.32;1.75;;;7.70;99.90;;;;;;4982177;28;20110;-62
2024/01/22 04:22:51;;;;;;;5.45;2.10;;;7.60;99.90;;;;;;4982096;28;20038;-62
2024/01/22 04:25:16;;;;;;;5.40;2.03;;;7.60;99.90;;;;;;4979225;28;20100;-62
2024/01/22 04:27:42;;;;;;;4.47;1.75;;;7.50;99.90;;;;;;4982152;28;20121;-62
2024/01/22 04:30:08;;;;;;;4.18;1.70;;;7.50;99.90;;;;;;4980381;28;20026;-63
2024/01/22 04:32:34;;;;;;;6.75;1.90;;;7.50;99.90;;;;;;4982332;28;20045;-63
2024/01/22 04:35:00;;;;;;;4.30;1.58;;;7.50;99.90;;;;;;4978174;28;20061;-63
2024/01/22 04:37:26;;;;;;;4.22;1.60;;;7.50;99.90;;;;;;4982962;28;20105;-63
2024/01/22 04:39:52;;;;;;;5.32;1.58;;;7.50;99.90;;;;;;4986649;28;20174;-63
2024/01/22 04:42:20;;;;;;;4.47;1.60;;;7.50;99.90;;;;;;4984029;28;20081;-63
2024/01/22 04:44:46;;;;;;;6.60;1.75;;;7.50;99.90;;;;;;4980017;28;20022;-63
2024/01/22 04:47:11;;;;;;;5.13;1.67;;;7.40;99.90;;;;;;4982120;28;20438;-63
2024/01/22 04:49:37;;;;;;;6.95;1.73;;;7.40;99.90;;;;;;4978235;28;20054;-63
2024/01/22 04:52:03;;;;;;;4.00;1.40;;;7.50;99.90;;;;;;4982120;28;20111;-63
2024/01/22 04:54:28;;;;;;;6.85;1.73;;;7.40;99.90;;;;;;4981542;28;20157;-63
2024/01/22 04:56:54;;;;;;;5.03;1.70;;;7.50;99.90;;;;;;4980788;28;20019;-63
2024/01/22 04:59:20;;;;;;;6.15;1.60;;;7.30;99.90;;;;;;4982567;28;20481;-63
2024/01/22 05:01:46;;;;;;;3.75;1.50;;;7.30;99.90;;;;;;4983726;28;20027;-63
2024/01/22 05:04:11;;;;;;;10.07;1.70;;;7.40;99.90;;;;;;4979425;28;20393;-63
2024/01/22 05:06:37;;;;;;;5.13;1.63;;;7.30;99.90;;;;;;4977208;28;20030;-63
2024/01/22 05:09:07;;;;;;;6.38;2.17;;;7.30;99.90;;;;;;4982361;28;20029;-63
2024/01/22 05:11:33;;;;;;;4.72;1.70;;;7.30;99.90;;;;;;4982027;28;20030;-63
2024/01/22 05:13:58;;;;;;;5.30;1.85;;;7.30;99.90;;;;;;4975016;28;20022;-63
2024/01/22 05:16:24;;;;;;;4.35;1.60;;;7.30;99.90;;;;;;4987209;28;20064;-63
2024/01/22 05:18:51;;;;;;;4.85;1.85;;;7.30;99.90;;;;;;4983112;28;20046;-63
2024/01/22 05:21:17;;;;;;;3.15;1.17;;;7.40;99.90;;;;;;4980203;28;20026;-63
2024/01/22 05:23:43;;;;;;;2.70;1.13;;;7.40;99.90;;;;;;4976345;28;20188;-63
2024/01/22 05:26:09;;;;;;;5.15;2.00;;;7.40;99.90;;;;;;4982470;28;20410;-63
2024/01/22 05:28:35;;;;;;;3.15;1.23;;;7.30;99.90;;;;;;4976320;28;20125;-63
2024/01/22 05:31:01;;;;;;;5.65;1.50;;;7.30;99.90;;;;;;4980212;28;20109;-63
2024/01/22 05:33:28;;;;;;;3.65;1.27;;;7.30;99.90;;;;;;4978018;28;20360;-63
2024/01/22 05:35:55;;;;;;;3.10;1.20;;;7.40;99.90;;;;;;4980793;28;20054;-63
2024/01/22 05:38:20;;;;;;;3.92;1.20;;;7.40;99.90;;;;;;4981717;28;20034;-62
2024/01/22 05:40:46;;;;;;;5.50;1.83;;;7.30;99.90;;;;;;4979580;28;20026;-62
2024/01/22 05:43:11;;;;;;;5.45;1.50;;;7.40;99.90;;;;;;4982701;28;20034;-62
2024/01/22 05:45:37;;;;;;;3.38;1.40;;;7.30;99.90;;;;;;4978048;28;20027;-62
2024/01/22 05:48:03;;;;;;;3.35;1.20;;;7.40;99.90;;;;;;4981313;28;20019;-62
2024/01/22 05:50:29;;;;;;;5.38;1.80;;;7.30;99.90;;;;;;4983292;28;20423;-62
2024/01/22 05:52:55;;;;;;;7.35;1.85;;;7.30;99.90;;;;;;4977135;28;20026;-62
2024/01/22 05:55:20;;;;;;;4.30;1.27;;;7.30;99.90;;;;;;4980600;28;20067;-62
2024/01/22 05:57:47;;;;;;;6.57;1.85;;;7.40;99.90;;;;;;4980917;28;20037;-62
2024/01/22 06:00:13;;;;;;;6.38;1.30;;;7.40;99.90;;;;;;4979807;28;20113;-62
2024/01/22 06:02:42;;;;;;;5.43;1.63;;;7.40;99.90;;;;;;4977401;28;20034;-62
2024/01/22 06:05:11;;;;;;;5.80;1.52;;;7.40;99.90;;;;;;4975695;28;20042;-62
2024/01/22 06:07:37;;;;;;;2.35;1.17;;;7.40;99.90;;;;;;4976630;28;20058;-62
2024/01/22 06:10:05;;;;;;;3.65;1.17;;;7.40;99.90;;;;;;4981026;28;20073;-62
2024/01/22 06:12:30;;;;;;;4.93;1.52;;;7.40;99.90;;;;;;4980556;28;20263;-62
2024/01/22 06:14:57;;;;;;;3.90;1.23;;;7.40;99.90;;;;;;4981044;28;20027;-62
2024/01/22 06:17:23;;;;;;;3.83;1.10;;;7.40;99.90;;;;;;4980901;28;20064;-62
2024/01/22 06:19:49;;;;;;;6.53;1.50;;;7.40;99.90;;;;;;4979650;28;20042;-62
2024/01/22 06:22:15;;;;;;;4.70;1.77;;;7.40;99.90;;;;;;4979530;28;20038;-62
2024/01/22 06:24:40;;;;;;;3.70;1.30;;;7.50;99.90;;;;;;4976994;28;20041;-62
2024/01/22 06:27:06;;;;;;;4.65;1.20;;;7.50;99.90;;;;;;4978360;28;20031;-62
2024/01/22 06:29:35;;;;;;;6.35;1.73;;;7.50;99.90;;;;;;4976764;28;20038;-62
2024/01/22 06:32:04;;;;;;;7.43;1.98;;;7.50;99.90;;;;;;4977494;28;20094;-61
2024/01/22 06:34:29;;;;;;;4.95;1.45;;;7.50;99.90;;;;;;4977905;28;20386;-62
2024/01/22 06:36:55;;;;;;;4.72;1.77;;;7.50;99.90;;;;;;4977088;28;20030;-62
2024/01/22 06:39:20;;;;;;;4.38;1.67;;;7.50;99.90;;;;;;4980451;28;20433;-62
2024/01/22 06:41:46;;;;;;;5.05;1.48;;;7.50;99.90;;;;;;4980222;28;20027;-61
2024/01/22 06:44:12;;;;;;;4.55;1.75;;;7.60;99.90;;;;;;4975805;28;20053;-62
2024/01/22 06:46:37;;;;;;;4.43;1.50;;;7.60;99.90;;;;;;4980113;28;20477;-62
2024/01/22 06:49:03;;;;;;;3.58;1.33;;;7.70;99.90;;;;;;4984558;28;20046;-62
2024/01/22 06:51:29;;;;;;;3.75;1.48;;;7.70;99.90;;;;;;4985889;28;20117;-62
2024/01/22 06:53:56;;;;;;;2.80;1.17;;;7.70;99.90;;;;;;4977607;28;20034;-62
2024/01/22 06:56:22;;;;;;;4.60;1.42;;;7.70;99.90;;;;;;4980564;28;20026;-62
2024/01/22 06:58:48;;;;;;;3.95;1.23;;;7.80;99.90;;;;;;4986604;28;20669;-62
2024/01/22 07:01:14;;;;;;;6.95;1.50;;;7.70;99.90;;;;;;4978434;28;20086;-61
2024/01/22 07:03:39;;;;;;;4.90;1.27;;;7.80;99.90;;;;;;4977346;28;20374;-62
2024/01/22 07:06:05;;;;;;;2.97;1.20;;;7.70;99.90;;;;;;4980228;28;20022;-62
2024/01/22 07:08:31;;;;;;;4.80;1.40;;;7.70;99.90;;;;;;4987510;28;20419;-62
2024/01/22 07:10:57;;;;;;;3.97;1.70;;;7.80;99.90;;;;;;4984631;28;20441;-62
2024/01/22 07:13:23;;;;;;;4.15;1.50;;;7.70;99.90;;;;;;4984778;28;20097;-61
2024/01/22 07:15:49;;;;;;;3.65;1.40;;;7.80;99.90;;;;;;4987484;28;20126;-62
2024/01/22 07:18:15;;;;;;;4.97;1.50;;;7.80;99.90;;;;;;4982554;28;20073;-61
2024/01/22 07:20:40;;;;;;;3.40;1.25;;;7.80;99.90;;;;;;4981252;28;20031;-61
2024/01/22 07:23:06;;;;;;;5.43;1.55;;;7.80;99.90;;;;;;4980895;28;20629;-62
2024/01/22 07:25:36;;;;;;;2.80;1.10;;;7.70;99.90;;;;;;4983270;28;20030;-61
2024/01/22 07:28:02;;;;;;;3.73;1.47;;;7.70;99.90;;;;;;4981455;28;20142;-62
2024/01/22 07:30:28;;;;;;;3.92;1.40;;;7.70;99.90;;;;;;4985288;28;20022;-61
2024/01/22 07:32:54;;;;;;;2.97;1.30;;;7.70;99.90;;;;;;4981557;28;20547;-62
2024/01/22 07:35:20;;;;;;;3.05;1.08;;;7.70;99.90;;;;;;4979628;28;20053;-62
2024/01/22 07:37:45;;;;;;;4.70;1.50;;;7.70;99.90;;;;;;4989776;28;20504;-61
2024/01/22 07:40:12;;;;;;;4.05;1.50;;;7.70;99.90;;;;;;4981244;28;20027;-61
2024/01/22 07:42:39;;;;;;;3.92;1.33;;;7.80;99.90;;;;;;4977778;28;20161;-62
2024/01/22 07:45:06;;;;;;;3.70;1.30;;;7.80;99.90;;;;;;4971478;28;20422;-62
2024/01/22 07:47:32;;;;;;;4.72;1.55;;;7.80;99.90;;;;;;4983791;28;20037;-62
2024/01/22 07:49:58;;;;;;;4.57;1.60;;;7.90;99.90;;;;;;4988353;28;20150;-61
2024/01/22 07:52:24;;;;;;;4.20;1.45;;;7.90;99.90;;;;;;4983522;28;20455;-61
2024/01/22 07:54:49;;;;;;;4.32;1.40;;;8.00;99.90;;;;;;4995740;28;20116;-61
2024/01/22 07:57:15;;;;;;;4.47;1.48;;;8.00;99.90;;;;;;4981876;28;20027;-62
2024/01/22 07:59:42;;;;;;;7.10;1.65;;;8.10;99.90;;;;;;4984194;28;20029;-62
2024/01/22 08:02:07;;;;;;;5.70;1.63;;;8.20;99.90;;;;;;4982051;28;20038;-62
2024/01/22 08:04:34;;;;;;;4.30;1.40;;;8.30;99.90;;;;;;4983788;28;20030;-62
2024/01/22 08:07:00;;;;;;;3.60;1.35;;;8.40;99.90;;;;;;4976488;28;20015;-61
2024/01/22 08:09:33;;;;;;;3.97;1.15;;;8.60;99.90;;;;;;4974050;28;20017;-61
2024/01/22 08:11:58;;;;;;;6.15;1.38;;;8.60;99.90;;;;;;4984460;28;20299;-61
2024/01/22 08:14:24;;;;;;;5.65;1.30;;;8.70;99.90;;;;;;4994272;28;20034;-62
2024/01/22 08:16:50;;;;;;;3.35;1.30;;;8.80;99.90;;;;;;4982229;28;20027;-61
2024/01/22 08:19:16;;;;;;;4.35;1.30;;;8.90;99.90;;;;;;4992821;28;20043;-62
2024/01/22 08:21:42;;;;;;;3.47;1.00;;;9.10;99.90;;;;;;4988223;28;20670;-61
2024/01/22 08:24:08;;;;;;;5.90;1.50;;;9.30;99.90;;;;;;4986049;28;20462;-61
2024/01/22 08:26:33;;;;;;;5.75;1.30;;;9.30;99.90;;;;;;4990282;28;20117;-61
2024/01/22 08:28:59;;;;;;;4.15;1.40;;;9.50;99.90;;;;;;4980007;28;20429;-61
2024/01/22 08:31:25;;;;;;;4.93;1.67;;;9.50;99.90;;;;;;4983926;28;20026;-61
2024/01/22 08:33:50;;;;;;;7.25;1.80;;;9.50;99.90;;;;;;4980866;28;20589;-61
2024/01/22 08:36:16;;;;;;;3.22;1.20;;;9.50;99.90;;;;;;4992079;28;20038;-61
2024/01/22 08:38:42;;;;;;;4.95;1.42;;;9.30;99.90;;;;;;4976759;28;20034;-61
2024/01/22 08:41:11;;;;;;;4.55;1.50;;;9.50;99.90;;;;;;4984085;28;20033;-61
2024/01/22 08:43:36;;;;;;;4.65;1.60;;;9.50;99.90;;;;;;4975111;28;20085;-61
2024/01/22 08:46:02;;;;;;;4.57;1.23;;;9.50;99.90;;;;;;4971766;28;20031;-61
2024/01/22 08:48:28;;;;;;;4.13;1.50;;;9.50;99.90;;;;;;4977586;28;20045;-61
2024/01/22 08:50:53;;;;;;;6.88;1.65;;;9.60;99.90;;;;;;4980423;28;20040;-61
2024/01/22 08:53:19;;;;;;;3.42;1.27;;;9.60;99.90;;;;;;4990701;28;20137;-61
2024/01/22 08:55:44;;;;;;;4.32;1.40;;;9.70;99.90;;;;;;4974835;28;20047;-61
2024/01/22 08:58:10;;;;;;;3.63;1.33;;;9.80;99.90;;;;;;4996070;28;20606;-61
2024/01/22 09:00:36;;;;;;;3.50;1.27;;;9.80;99.90;;;;;;4982255;28;20022;-61
2024/01/22 09:03:02;;;;;;;4.32;1.40;;;9.80;99.90;;;;;;4977606;28;20049;-61
2024/01/22 09:05:28;;;;;;;4.18;1.90;;;9.90;99.90;;;;;;4979464;28;20410;-61
2024/01/22 09:07:54;;;;;;;4.85;1.38;;;10.00;99.90;;;;;;4988977;28;20037;-61
2024/01/22 09:10:21;;;;;;;4.93;1.65;;;10.10;99.90;;;;;;5000928;28;20477;-61
2024/01/22 09:12:48;;;;;;;4.10;1.42;;;9.90;99.90;;;;;;4973724;28;20088;-61
2024/01/22 09:15:17;;;;;;;4.15;1.23;;;9.90;99.90;;;;;;4981636;28;20274;-61
2024/01/22 09:17:44;;;;;;;3.53;1.30;;;9.80;99.90;;;;;;4980807;28;20033;-61
2024/01/22 09:20:10;;;;;;;4.50;1.30;;;9.80;99.90;;;;;;4980978;28;20274;-61
2024/01/22 09:22:39;;;;;;;3.10;1.20;;;9.90;99.90;;;;;;4980565;28;20494;-61
2024/01/22 09:25:06;;;;;;;2.73;1.10;;;9.90;99.90;;;;;;4986186;28;20081;-61
2024/01/22 09:27:31;;;;;;;2.97;1.20;;;9.90;99.90;;;;;;4981738;28;20099;-61
2024/01/22 09:29:58;;;;;;;5.45;1.20;;;10.00;99.90;;;;;;4978602;28;20018;-61
2024/01/22 09:32:25;;;;;;;3.85;1.40;;;10.00;99.90;;;;;;4986828;28;20587;-61
2024/01/22 09:34:51;;;;;;;3.50;1.20;;;10.00;99.90;;;;;;4981729;28;20228;-61
2024/01/22 09:37:17;;;;;;;3.35;1.35;;;10.00;99.90;;;;;;4980597;28;20273;-61
2024/01/22 09:39:44;;;;;;;4.05;1.20;;;9.90;99.90;;;;;;4974998;28;20046;-61
2024/01/22 09:42:12;;;;;;;4.50;1.20;;;9.90;99.90;;;;;;4986401;28;20026;-61
2024/01/22 09:44:39;;;;;;;4.80;1.23;;;9.80;99.90;;;;;;4979307;28;20019;-61
2024/01/22 09:47:05;;;;;;;4.53;1.33;;;9.80;99.90;;;;;;4981158;28;20475;-61
2024/01/22 09:49:31;;;;;;;4.88;1.08;;;9.90;99.90;;;;;;4968298;28;20062;-61
2024/01/22 09:51:56;;;;;;;7.38;1.75;;;9.90;99.90;;;;;;4973469;28;20501;-61
2024/01/22 09:54:28;;;;;;;4.20;1.20;;;9.90;99.90;;;;;;4988924;28;20038;-61
2024/01/22 09:56:54;;;;;;;7.28;1.42;;;10.00;99.90;;;;;;4979228;28;20088;-61
2024/01/22 09:59:24;;;;;;;3.25;1.08;;;10.00;99.90;;;;;;5002903;28;20050;-61
2024/01/22 10:01:52;;;;;;;3.22;1.00;;;10.00;99.90;;;;;;4985559;28;20030;-61
2024/01/22 10:04:18;;;;;;;4.50;1.45;;;10.10;99.90;;;;;;4974142;28;20037;-62
2024/01/22 10:06:45;;;;;;;3.47;1.17;;;10.10;99.90;;;;;;4991698;28;20041;-61
2024/01/22 10:09:15;;;;;;;4.10;1.20;;;10.10;99.90;;;;;;4981926;28;20065;-61
2024/01/22 10:11:42;;;;;;;7.05;1.40;;;10.20;99.90;;;;;;4984424;28;20019;-61
2024/01/22 10:14:07;;;;;;;9.20;1.35;;;10.30;99.90;;;;;;4980392;28;20050;-61
2024/01/22 10:16:33;;;;;;;4.70;1.15;;;10.30;99.90;;;;;;4981058;28;20509;-61
2024/01/22 10:19:05;;;;;;;5.72;1.42;;;10.40;99.90;;;;;;4979930;28;20504;-61
2024/01/22 10:21:31;;;;;;;4.72;1.30;;;10.50;99.90;;;;;;4979553;28;20567;-61
2024/01/22 10:23:57;;;;;;;3.70;1.30;;;10.50;99.90;;;;;;4977090;28;20088;-61
2024/01/22 10:26:23;;;;;;;3.72;1.05;;;10.60;99.90;;;;;;4976547;28;20031;-61
2024/01/22 10:28:48;;;;;;;5.90;1.30;;;10.60;99.90;;;;;;4977931;28;20466;-61
2024/01/22 10:31:14;;;;;;;7.13;1.27;;;10.80;99.90;;;;;;4981618;28;20532;-61
2024/01/22 10:33:40;;;;;;;4.88;1.38;;;10.90;99.90;;;;;;4983909;28;20100;-61
2024/01/22 10:36:19;;;;;;;6.47;1.20;;;11.00;99.90;;;;;;4976331;28;20034;-61
2024/01/22 10:38:46;;;;;;;4.57;1.30;;;11.10;99.90;;;;;;4979210;28;20121;-61
2024/01/22 10:41:16;;;;;;;5.40;1.33;;;11.20;99.90;;;;;;4979670;28;20038;-61
2024/01/22 10:43:43;;;;;;;9.27;1.45;;;11.30;99.90;;;;;;4977774;28;20204;-61
2024/01/22 10:46:11;;;;;;;7.55;1.60;;;11.30;99.90;;;;;;4983476;28;20038;-61
2024/01/22 10:48:37;;;;;;;4.40;1.35;;;11.30;99.90;;;;;;4979905;28;20049;-61
2024/01/22 10:51:06;;;;;;;7.82;1.90;;;11.50;99.90;;;;;;4979710;28;20462;-61
2024/01/22 10:53:32;;;;;;;10.55;2.10;;;11.60;99.90;;;;;;4986184;28;20556;-61
2024/01/22 10:56:11;;;;;;;9.05;1.42;;;11.70;99.90;;;;;;4976153;28;20031;-61
2024/01/22 10:58:44;;;;;;;7.05;1.52;;;11.70;99.90;;;;;;4981330;28;20118;-61
2024/01/22 11:01:15;;;;;;;5.88;1.40;;;11.70;99.90;;;;;;4981520;28;20037;-61
2024/01/22 11:03:49;;;;;;;9.50;1.67;;;11.70;99.90;;;;;;4976526;28;20482;-61
2024/01/22 11:06:25;;;;;;;6.85;1.55;;;11.70;99.90;;;;;;4977400;28;20034;-61
2024/01/22 11:08:55;;;;;;;5.15;1.70;;;11.70;99.90;;;;;;4976956;28;20022;-61
2024/01/22 11:11:24;;;;;;;;;;;11.70;99.90;;;;;;4979473;28;20146;-62
2024/01/22 11:13:52;;;;;;;6.32;1.50;;;11.70;99.90;;;;;;4979015;28;20249;-61
2024/01/22 11:16:18;;;;;;;4.82;1.25;;;11.70;99.90;;;;;;4988004;28;20057;-61
2024/01/22 11:19:04;;;;;;;6.80;1.40;;;11.80;99.90;;;;;;4978784;28;20111;-61
2024/01/22 11:21:35;;;;;;;5.57;1.15;;;11.90;99.90;;;;;;4980252;28;20031;-61
2024/01/22 11:24:15;;;;;;;5.47;1.27;;;11.90;99.90;;;;;;4978303;28;20034;-61
2024/01/22 11:27:05;;;;;;;5.28;1.33;;;11.90;99.90;;;;;;4978568;28;20386;-61
2024/01/22 11:29:32;;;;;;;4.25;1.30;;;11.90;99.90;;;;;;4968297;28;20360;-61
2024/01/22 11:32:27;;;;;;;5.68;1.70;;;11.90;99.90;;;;;;4981840;28;20022;-61
2024/01/22 11:34:57;;;;;;;7.68;1.67;;;12.00;99.90;;;;;;4981012;28;20109;-61
2024/01/22 11:37:34;;;;;;;6.22;1.83;;;12.00;99.90;;;;;;4980135;28;20034;-61
2024/01/22 11:40:00;;;;;;;4.55;1.25;;;11.90;99.90;;;;;;4978955;28;20104;-63
2024/01/22 11:42:28;;;;;;;4.70;1.15;;;11.90;99.90;;;;;;4987726;28;20489;-63
2024/01/22 11:44:54;;;;;;;2.78;1.00;;;11.80;99.90;;;;;;4981513;28;20034;-63
2024/01/22 11:47:21;;;;;;;3.75;1.10;;;11.80;99.90;;;;;;4987334;28;20118;-63
2024/01/22 11:49:47;;;;;;;6.28;1.45;;;11.90;99.90;;;;;;4980369;28;20552;-63
2024/01/22 11:52:17;;;;;;;5.28;1.38;;;11.90;99.90;;;;;;4987962;28;20027;-63
2024/01/22 11:54:55;;;;;;;;;;;11.90;99.90;;;;;;4979258;28;20064;-63
2024/01/22 11:57:21;;;;;;;6.18;1.40;;;11.90;99.90;;;;;;4987546;28;20437;-63
2024/01/22 12:00:05;;;;;;;4.47;1.23;;;11.70;99.90;;;;;;4984677;28;20073;-63
2024/01/22 12:02:34;;;;;;;4.50;1.38;;;11.60;99.90;;;;;;4979298;28;20027;-63
2024/01/22 12:05:00;;;;;;;5.47;1.02;;;11.50;99.90;;;;;;4972432;28;20034;-63
2024/01/22 12:07:34;;;;;;;5.90;1.30;;;11.40;99.90;;;;;;4987706;28;20373;-64
2024/01/22 12:10:00;;;;;;;4.18;1.27;;;11.40;99.90;;;;;;4985434;28;20037;-63
2024/01/22 12:12:26;;;;;;;8.13;1.90;;;11.50;99.90;;;;;;4987524;28;20141;-63
2024/01/22 12:14:56;;;;;;;7.47;1.45;;;11.50;99.90;;;;;;4985092;28;20088;-63
2024/01/22 12:17:21;;;;;;;4.13;1.20;;;11.50;99.90;;;;;;4989184;28;20104;-63
2024/01/22 12:19:52;;;;;;;8.82;1.30;;;11.50;99.90;;;;;;4989402;28;20485;-63
2024/01/22 12:22:18;;;;;;;5.75;1.10;;;11.50;99.90;;;;;;4986810;28;20034;-63
2024/01/22 12:25:00;;;;;;;4.20;1.00;;;11.40;99.90;;;;;;4987255;28;20034;-64
2024/01/22 12:27:25;;;;;;;6.68;1.80;;;11.20;99.90;;;;;;4988551;28;20117;-63
2024/01/22 12:30:08;;;;;;;9.30;3.30;;;11.00;99.90;;;;;;4987689;28;20105;-63
2024/01/22 12:32:37;;;;;;;10.00;2.45;;;10.80;99.90;;;;;;4987778;28;20109;-62
2024/01/22 12:35:03;;;;;;;11.27;2.85;;;9.80;99.90;;;;;;4985769;28;20034;-62
2024/01/22 12:37:31;;;;;;;9.52;2.50;;;9.00;99.90;;;;;;4985465;28;20041;-62
2024/01/22 12:40:15;;;;;;;17.13;3.47;;;8.50;99.90;;;;;;4985204;28;20030;-62
2024/01/22 12:42:48;;;;;;;20.90;3.40;;;8.20;99.90;;;;;;4988017;28;20030;-64
2024/01/22 12:45:23;;;;;;;5.43;1.88;;;8.00;99.90;;;;;;4990922;28;20034;-65
2024/01/22 12:47:48;;;;;;;21.73;3.30;;;7.90;99.90;;;;;;4989331;28;20109;-65
2024/01/22 12:50:17;;;;;;;14.50;3.35;;;7.90;99.90;;;;;;4989648;28;20549;-65
2024/01/22 12:52:44;;;;;;;18.55;4.22;;;8.00;99.90;;;;;;4987185;28;20456;-65